Time;durP1;ratioP1;P1;durP2;ratioP2;P2;SDS_P1;SDS_P2;PMS_P1;PMS_P2;Temp;Humidity;BMP_temperature;BMP_pressure;BME280_temperature;BME280_humidity;BME280_pressure;Samples;Min_cycle;Max_cycle;Signal;HPM_P1;HPM_P2
2022/03/27 00:00:15;;;;;;;24.60;16.07;;;;;;;9.63;49.22;100304.41;5113551;28;20281;-58
2022/03/27 00:02:43;;;;;;;23.10;14.97;;;;;;;9.67;48.73;100308.69;5113080;28;20202;-58
2022/03/27 00:05:11;;;;;;;22.57;15.57;;;;;;;9.70;49.00;100317.28;5113056;28;20195;-57
2022/03/27 00:07:38;;;;;;;22.70;14.63;;;;;;;9.59;49.11;100306.19;5113462;28;20214;-57
2022/03/27 00:10:06;;;;;;;22.13;15.97;;;;;;;9.50;49.68;100303.69;5112869;28;20206;-58
2022/03/27 00:12:34;;;;;;;27.80;16.20;;;;;;;9.44;49.94;100303.78;5113230;28;20194;-54
2022/03/27 00:15:02;;;;;;;22.37;15.03;;;;;;;9.34;50.52;100308.22;5112921;28;20201;-58
2022/03/27 00:17:32;;;;;;;22.07;14.23;;;;;;;9.33;49.83;100296.13;5113095;28;20189;-58
2022/03/27 00:20:00;;;;;;;24.47;14.87;;;;;;;9.48;49.60;100300.25;5113461;28;20195;-57
2022/03/27 00:22:28;;;;;;;22.20;13.53;;;;;;;9.51;49.45;100304.56;5112757;28;20195;-52
2022/03/27 00:24:55;;;;;;;23.30;14.47;;;;;;;9.54;49.23;100307.13;5112619;28;20198;-58
2022/03/27 00:27:22;;;;;;;17.70;13.63;;;;;;;9.48;49.37;100289.88;5113085;28;20223;-57
2022/03/27 00:29:50;;;;;;;20.37;13.63;;;;;;;9.47;49.87;100303.75;5112690;28;20278;-57
2022/03/27 00:32:17;;;;;;;18.03;12.50;;;;;;;9.51;49.41;100310.59;5112376;28;20205;-53
2022/03/27 00:34:44;;;;;;;17.17;11.97;;;;;;;9.59;49.28;100305.34;5112567;28;20206;-53
2022/03/27 00:37:12;;;;;;;18.77;12.50;;;;;;;9.60;49.62;100302.69;5112406;28;20273;-54
2022/03/27 00:39:39;;;;;;;15.47;11.80;;;;;;;9.60;49.37;100302.69;5112374;28;20201;-53
2022/03/27 00:42:07;;;;;;;18.23;11.97;;;;;;;9.59;49.22;100308.78;5112635;28;20194;-53
2022/03/27 00:44:36;;;;;;;16.87;11.50;;;;;;;9.54;49.19;100301.94;5112218;28;20194;-53
2022/03/27 00:47:05;;;;;;;15.60;11.27;;;;;;;9.49;49.56;100296.78;5112323;28;20271;-53
2022/03/27 00:49:32;;;;;;;20.33;11.70;;;;;;;9.46;49.53;100307.22;5112060;28;20248;-55
2022/03/27 00:51:59;;;;;;;14.00;11.60;;;;;;;9.30;49.42;100298.75;5112201;28;20191;-58
2022/03/27 00:54:27;;;;;;;19.13;10.90;;;;;;;9.33;50.81;100300.44;5112066;28;20195;-58
2022/03/27 00:56:54;;;;;;;16.40;11.40;;;;;;;9.25;50.76;100297.09;5112480;28;20244;-56
2022/03/27 00:59:21;;;;;;;17.70;11.53;;;;;;;9.21;50.12;100295.41;5111505;28;20205;-57
2022/03/27 01:01:48;;;;;;;17.27;12.73;;;;;;;9.33;50.21;100296.13;5110197;28;20226;-57
2022/03/27 01:04:16;;;;;;;17.10;12.23;;;;;;;9.27;50.76;100297.91;5111964;28;20256;-54
2022/03/27 01:06:44;;;;;;;22.87;13.30;;;;;;;9.30;50.11;100295.31;5111935;28;20195;-56
2022/03/27 01:12:12;;;;;;;18.43;12.80;;;;;;;9.25;50.98;100297.97;5112005;28;20603;-56
2022/03/27 01:14:39;;;;;;;18.80;13.13;;;;;;;9.10;51.00;100296.38;5111468;28;20289;-55
2022/03/27 01:17:08;;;;;;;19.43;12.53;;;;;;;8.95;52.00;100295.66;5111289;28;20218;-55
2022/03/27 01:19:39;;;;;;;15.20;11.90;;;;;;;9.00;51.40;100296.50;5111843;28;20657;-55
2022/03/27 01:22:08;;;;;;;19.47;12.23;;;;;;;8.98;51.00;100293.06;5111588;28;20201;-56
2022/03/27 01:24:35;;;;;;;20.10;11.63;;;;;;;8.89;51.38;100285.38;5111841;28;20205;-54
2022/03/27 01:27:03;;;;;;;17.60;11.83;;;;;;;8.87;51.53;100292.31;5111451;28;20201;-54
2022/03/27 01:29:30;;;;;;;19.80;12.20;;;;;;;8.96;51.40;100277.53;5111533;28;20200;-53
2022/03/27 01:31:58;;;;;;;15.93;11.90;;;;;;;8.95;51.93;100287.91;5111677;28;20195;-56
2022/03/27 01:34:25;;;;;;;18.80;11.63;;;;;;;9.02;51.56;100284.38;5111839;28;20194;-57
2022/03/27 01:36:52;;;;;;;15.70;11.63;;;;;;;9.00;51.11;100283.53;5111550;28;20195;-58
2022/03/27 01:39:20;;;;;;;18.53;12.17;;;;;;;8.99;51.46;100274.91;5111538;28;20190;-57
2022/03/27 01:41:47;;;;;;;16.53;11.57;;;;;;;9.06;51.13;100275.69;5111141;28;20221;-57
2022/03/27 01:44:16;;;;;;;17.57;11.20;;;;;;;9.08;50.95;100276.53;5111023;28;20190;-57
2022/03/27 01:46:44;;;;;;;20.57;11.17;;;;;;;9.02;50.90;100279.22;5111184;28;20248;-56
2022/03/27 01:49:13;;;;;;;15.27;11.07;;;;;;;9.08;50.10;100279.13;5111206;28;20599;-57
2022/03/27 01:51:41;;;;;;;20.87;11.17;;;;;;;9.07;50.52;100273.09;5111230;28;20194;-57
2022/03/27 01:54:08;;;;;;;16.27;11.07;;;;;;;9.09;50.83;100275.69;5111083;28;20198;-56
2022/03/27 01:56:38;;;;;;;18.70;10.40;;;;;;;9.10;51.03;100270.47;5110647;28;20195;-57
2022/03/27 01:59:05;;;;;;;16.07;10.67;;;;;;;9.16;50.58;100277.31;5111000;28;20731;-57
2022/03/27 02:01:34;;;;;;;19.77;10.30;;;;;;;9.12;50.21;100273.06;5110922;28;20217;-57
2022/03/27 02:04:01;;;;;;;16.87;11.30;;;;;;;9.09;50.92;100265.31;5110870;28;20195;-57
2022/03/27 02:06:28;;;;;;;17.77;10.40;;;;;;;9.10;51.06;100267.03;5111152;28;20582;-54
2022/03/27 02:08:55;;;;;;;14.53;9.77;;;;;;;9.11;50.75;100273.94;5110678;28;20218;-54
2022/03/27 02:11:22;;;;;;;11.90;8.50;;;;;;;9.09;50.70;100275.69;5110996;28;20202;-54
2022/03/27 02:13:51;;;;;;;12.00;9.20;;;;;;;9.11;50.99;100268.75;5110229;28;20230;-54
2022/03/27 02:16:18;;;;;;;13.03;8.57;;;;;;;9.12;50.69;100269.63;5110595;28;20238;-53
2022/03/27 02:18:45;;;;;;;15.00;8.63;;;;;;;9.07;50.69;100269.66;5110557;28;20561;-57
2022/03/27 02:21:12;;;;;;;12.40;8.50;;;;;;;9.10;50.38;100270.47;5110747;28;20195;-58
2022/03/27 02:23:39;;;;;;;13.00;8.70;;;;;;;9.06;50.88;100265.34;5110361;28;20678;-58
2022/03/27 02:26:06;;;;;;;18.80;8.83;;;;;;;9.10;50.96;100272.22;5110457;28;20205;-57
2022/03/27 02:28:34;;;;;;;10.60;7.77;;;;;;;9.16;50.25;100266.94;5110447;28;20215;-56
2022/03/27 02:31:02;;;;;;;15.77;8.17;;;;;;;9.14;50.32;100271.31;5110561;28;20199;-56
2022/03/27 02:33:30;;;;;;;12.90;7.67;;;;;;;9.13;50.19;100266.16;5110634;28;20194;-57
2022/03/27 02:35:57;;;;;;;12.83;8.03;;;;;;;9.14;49.57;100267.88;5110339;28;20214;-57
2022/03/27 02:38:24;;;;;;;11.23;7.53;;;;;;;9.12;50.65;100264.44;5110379;28;20187;-56
2022/03/27 02:40:51;;;;;;;10.43;7.80;;;;;;;9.04;50.42;100270.53;5110215;28;20218;-56
2022/03/27 02:43:18;;;;;;;11.50;7.30;;;;;;;9.02;51.00;100271.44;5110259;28;20201;-56
2022/03/27 02:45:47;;;;;;;11.73;8.07;;;;;;;8.99;51.15;100279.22;5110304;28;20596;-56
2022/03/27 02:48:16;;;;;;;15.77;8.00;;;;;;;9.08;50.81;100280.00;5110275;28;20218;-56
2022/03/27 02:50:43;;;;;;;10.27;8.13;;;;;;;9.14;50.44;100279.09;5110090;28;20198;-57
2022/03/27 02:53:11;;;;;;;13.37;7.80;;;;;;;9.19;49.63;100279.88;5110347;28;20205;-57
2022/03/27 02:55:38;;;;;;;13.80;8.23;;;;;;;9.30;49.73;100280.63;5110255;28;20670;-57
2022/03/27 02:58:06;;;;;;;13.87;7.50;;;;;;;9.29;49.41;100278.03;5110113;28;20198;-58
2022/03/27 03:00:33;;;;;;;10.80;7.63;;;;;;;9.37;49.30;100291.75;5110345;28;20569;-53
2022/03/27 03:03:00;;;;;;;14.57;7.73;;;;;;;9.41;49.24;100294.31;5110129;28;20285;-53
2022/03/27 03:05:28;;;;;;;12.50;7.90;;;;;;;9.39;49.79;100303.81;5110028;28;20199;-54
2022/03/27 03:07:56;;;;;;;10.90;7.60;;;;;;;9.38;49.34;100302.09;5110095;28;20612;-53
2022/03/27 03:10:23;;;;;;;12.03;7.67;;;;;;;9.36;48.79;100305.59;5110220;28;20197;-54
2022/03/27 03:12:50;;;;;;;11.53;7.50;;;;;;;9.28;50.01;100297.03;5109866;28;20190;-54
2022/03/27 03:15:17;;;;;;;15.80;8.10;;;;;;;9.29;49.75;100294.44;5110036;28;20577;-53
2022/03/27 03:17:44;;;;;;;11.83;8.30;;;;;;;9.36;49.26;100301.28;5109928;28;20190;-54
2022/03/27 03:20:12;;;;;;;18.73;8.17;;;;;;;9.34;49.10;100308.22;5110104;28;20259;-52
2022/03/27 03:22:41;;;;;;;14.27;8.07;;;;;;;9.25;49.43;100303.13;5110088;28;20221;-54
2022/03/27 03:25:09;;;;;;;18.97;8.40;;;;;;;9.12;49.89;100311.91;5111468;28;20652;-53
2022/03/27 03:27:37;;;;;;;16.03;9.20;;;;;;;9.05;49.87;100318.00;5113920;28;20226;-53
2022/03/27 03:30:06;;;;;;;9.63;8.27;;;;;;;9.01;49.89;100318.94;5114055;28;20666;-53
2022/03/27 03:32:34;;;;;;;10.43;8.27;;;;;;;8.95;50.66;100317.22;5113885;28;20226;-54
2022/03/27 03:35:01;;;;;;;22.17;8.50;;;;;;;8.94;50.26;100312.06;5113621;28;20195;-54
2022/03/27 03:37:28;;;;;;;10.77;8.53;;;;;;;8.93;50.93;100307.75;5113920;28;20202;-53
2022/03/27 03:39:56;;;;;;;20.57;8.57;;;;;;;8.69;51.18;100289.00;5113684;28;20209;-57
2022/03/27 03:42:24;;;;;;;15.17;8.90;;;;;;;8.89;50.20;100324.22;5113580;28;20234;-57
2022/03/27 03:44:51;;;;;;;13.27;9.13;;;;;;;8.87;51.20;100318.19;5113315;28;20210;-57
2022/03/27 03:47:19;;;;;;;12.33;8.13;;;;;;;8.85;51.01;100317.34;5113499;28;20194;-54
2022/03/27 03:49:47;;;;;;;15.70;9.00;;;;;;;8.82;50.83;100322.53;5113397;28;20315;-53
2022/03/27 03:52:14;;;;;;;10.53;8.23;;;;;;;8.83;50.65;100337.19;5113399;28;20202;-55
2022/03/27 03:54:41;;;;;;;15.40;8.70;;;;;;;8.81;50.42;100324.25;5113327;28;20229;-53
2022/03/27 03:57:09;;;;;;;11.87;8.00;;;;;;;8.68;50.75;100331.31;5113461;28;20238;-53
2022/03/27 03:59:39;;;;;;;15.67;8.93;;;;;;;8.73;51.47;100323.47;5113542;28;20626;-55
2022/03/27 04:02:07;;;;;;;17.00;8.63;;;;;;;8.67;50.67;100331.31;5113238;28;20206;-53
2022/03/27 04:04:35;;;;;;;11.63;8.77;;;;;;;8.35;52.15;100332.38;5113275;28;20225;-56
2022/03/27 04:07:04;;;;;;;12.57;8.90;;;;;;;8.27;52.89;100322.94;5113309;28;20202;-57
2022/03/27 04:09:31;;;;;;;20.80;8.87;;;;;;;8.28;52.80;100327.22;5112834;28;20222;-57
2022/03/27 04:11:58;;;;;;;11.63;8.60;;;;;;;8.38;52.12;100334.09;5112792;28;20666;-57
2022/03/27 04:14:28;;;;;;;15.80;8.40;;;;;;;8.42;52.39;100333.22;5106181;28;20219;-58
2022/03/27 04:16:56;;;;;;;9.50;7.67;;;;;;;8.56;51.87;100338.28;5107832;28;20230;-58
2022/03/27 04:19:23;;;;;;;16.43;8.57;;;;;;;8.59;51.52;100336.53;5112153;28;20219;-58
2022/03/27 04:21:50;;;;;;;11.50;7.93;;;;;;;8.59;51.05;100341.69;5112926;27;20309;-58
2022/03/27 04:24:17;;;;;;;10.13;7.87;;;;;;;8.58;51.17;100341.69;5119067;27;20683;-59
2022/03/27 04:26:44;;;;;;;14.80;8.20;;;;;;;8.68;51.69;100340.78;5119592;27;20219;-58
2022/03/27 04:29:11;;;;;;;10.10;7.90;;;;;;;8.81;50.73;100347.56;5121928;27;20312;-58
2022/03/27 04:31:40;;;;;;;12.30;8.10;;;;;;;8.94;50.30;100349.19;5121074;27;20214;-58
2022/03/27 04:34:08;;;;;;;12.27;8.07;;;;;;;9.05;50.29;100349.94;5122041;27;20654;-59
2022/03/27 04:36:35;;;;;;;13.40;8.40;;;;;;;9.18;50.20;100352.41;5121044;27;20222;-58
2022/03/27 04:39:03;;;;;;;11.33;8.27;;;;;;;9.28;50.27;100351.44;5117894;27;20218;-56
2022/03/27 04:41:30;;;;;;;16.20;8.00;;;;;;;9.37;50.00;100349.63;5120670;27;20472;-57
2022/03/27 04:43:57;;;;;;;9.27;8.00;;;;;;;9.47;49.37;100360.75;5121295;27;20593;-58
2022/03/27 04:46:24;;;;;;;10.23;7.60;;;;;;;9.56;48.91;100350.28;5120592;27;20226;-57
2022/03/27 04:48:52;;;;;;;12.03;8.03;;;;;;;9.71;49.59;100359.59;5120117;27;20308;-58
2022/03/27 04:51:19;;;;;;;18.93;7.87;;;;;;;9.77;49.01;100369.91;5122487;27;20246;-61
2022/03/27 04:53:46;;;;;;;12.87;7.93;;;;;;;9.86;48.73;100364.59;5116931;27;20339;-55
2022/03/27 04:56:13;;;;;;;10.27;7.30;;;;;;;9.96;48.80;100366.22;5120699;27;20228;-57
2022/03/27 04:58:40;;;;;;;14.83;8.10;;;;;;;10.10;48.16;100364.31;5118207;27;20221;-57
2022/03/27 05:01:07;;;;;;;11.30;7.60;;;;;;;10.28;47.78;100370.13;5117474;27;20297;-56
2022/03/27 05:03:34;;;;;;;16.03;8.33;;;;;;;10.43;47.02;100364.75;5128851;27;20275;-57
2022/03/27 05:06:03;;;;;;;11.50;7.63;;;;;;;10.53;46.57;100368.91;5117550;27;20243;-57
2022/03/27 05:08:30;;;;;;;12.47;7.87;;;;;;;10.77;46.15;100368.53;5111280;28;20218;-56
2022/03/27 05:10:57;;;;;;;11.20;7.73;;;;;;;10.95;45.39;100372.56;5111598;28;20225;-56
2022/03/27 05:13:23;;;;;;;16.57;8.03;;;;;;;11.15;45.22;100374.84;5110836;28;20297;-56
2022/03/27 05:15:51;;;;;;;13.83;8.23;;;;;;;11.34;44.82;100371.03;5111274;28;20246;-56
2022/03/27 05:18:18;;;;;;;10.03;8.30;;;;;;;11.59;44.37;100374.03;5110913;28;20226;-55
2022/03/27 05:20:46;;;;;;;15.73;8.40;;;;;;;12.33;43.21;100369.88;5111041;28;20222;-56
2022/03/27 05:23:14;;;;;;;13.83;8.43;;;;;;;13.92;40.15;100377.13;5110953;28;20252;-55
2022/03/27 05:25:42;;;;;;;19.50;8.77;;;;;;;15.90;36.66;100381.16;5111497;28;20691;-57
2022/03/27 05:28:10;;;;;;;9.90;7.93;;;;;;;17.85;33.59;100387.16;5110700;28;20617;-56
2022/03/27 05:30:38;;;;;;;12.27;8.37;;;;;;;19.37;31.15;100379.84;5111462;28;20226;-56
2022/03/27 05:33:06;;;;;;;10.37;7.87;;;;;;;20.90;28.87;100381.19;5111053;28;20226;-55
2022/03/27 05:35:33;;;;;;;12.80;8.00;;;;;;;22.14;27.49;100385.19;5111546;28;20693;-55
2022/03/27 05:38:00;;;;;;;9.45;8.00;;;;;;;22.99;26.21;100379.69;5111213;28;20218;-57
2022/03/27 05:40:29;;;;;;;13.80;8.25;;;;;;;23.29;25.53;100381.22;5111276;28;20747;-56
2022/03/27 05:42:56;;;;;;;13.00;8.60;;;;;;;23.86;24.80;100387.84;5110443;28;20229;-56
2022/03/27 05:45:25;;;;;;;14.43;9.32;;;;;;;24.22;24.67;100387.09;5111024;28;20222;-55
2022/03/27 05:47:53;;;;;;;13.68;8.32;;;;;;;24.67;24.16;100395.34;5110113;28;20218;-54
2022/03/27 05:50:22;;;;;;;12.63;8.88;;;;;;;25.51;23.38;100391.69;5111152;28;20681;-55
2022/03/27 05:52:50;;;;;;;11.73;8.38;;;;;;;26.22;22.64;100394.06;5110835;28;20798;-53
2022/03/27 05:55:17;;;;;;;10.25;7.28;;;;;;;26.80;21.83;100394.69;5110903;28;20287;-54
2022/03/27 05:57:46;;;;;;;12.02;8.25;;;;;;;27.04;21.54;100402.50;5110392;28;20229;-54
2022/03/27 06:00:16;;;;;;;9.05;7.57;;;;;;;27.17;21.23;100403.19;5110546;28;20609;-53
2022/03/27 06:02:44;;;;;;;18.33;7.07;;;;;;;27.70;20.05;100403.13;5110659;28;20279;-53
2022/03/27 06:05:11;;;;;;;10.30;7.60;;;;;;;27.95;20.08;100408.03;5110548;28;20225;-54
2022/03/27 06:07:45;;;;;;;9.85;6.80;;;;;;;28.47;19.81;100398.97;5110675;28;20589;-54
2022/03/27 06:10:13;;;;;;;10.70;7.38;;;;;;;28.68;19.07;100403.34;5110310;28;20230;-54
2022/03/27 06:12:43;;;;;;;11.30;7.28;;;;;;;29.04;19.11;100407.22;5109830;28;20232;-54
2022/03/27 06:15:12;;;;;;;10.50;7.43;;;;;;;29.61;18.74;100404.50;5110051;28;20774;-55
2022/03/27 06:17:44;;;;;;;9.77;7.93;;;;;;;30.08;18.41;100404.53;5110818;28;20218;-53
2022/03/27 06:20:12;;;;;;;10.77;7.80;;;;;;;30.65;18.04;100407.91;5110283;28;20218;-55
2022/03/27 06:22:40;;;;;;;8.55;7.75;;;;;;;30.97;17.81;100407.38;5110773;28;20626;-54
2022/03/27 06:25:09;;;;;;;9.93;7.60;;;;;;;31.04;17.46;100413.81;5109606;28;20214;-57
2022/03/27 06:27:36;;;;;;;9.73;8.20;;;;;;;30.70;17.76;100415.50;5109309;28;20218;-58
2022/03/27 06:30:04;;;;;;;11.07;7.88;;;;;;;30.57;17.73;100415.88;5109578;28;20240;-57
2022/03/27 06:32:32;;;;;;;11.00;7.30;;;;;;;30.64;17.55;100414.28;5108835;28;20228;-57
2022/03/27 06:35:00;;;;;;;8.77;7.72;;;;;;;30.56;17.80;100419.53;5108721;28;20229;-57
2022/03/27 06:37:27;;;;;;;11.23;7.70;;;;;;;30.83;17.61;100416.81;5110139;28;20218;-56
2022/03/27 06:39:55;;;;;;;11.30;8.02;;;;;;;31.04;17.24;100411.97;5109766;28;20287;-58
2022/03/27 06:42:23;;;;;;;8.43;7.13;;;;;;;31.15;17.33;100413.66;5109637;28;20218;-58
2022/03/27 06:44:51;;;;;;;9.80;7.20;;;;;;;31.68;16.51;100421.63;5109254;28;20702;-57
2022/03/27 06:47:19;;;;;;;11.90;6.90;;;;;;;31.36;17.09;100411.47;5109929;28;20211;-57
2022/03/27 06:49:48;;;;;;;10.02;7.15;;;;;;;31.75;16.74;100428.03;5109631;28;20226;-57
2022/03/27 06:52:15;;;;;;;12.18;7.28;;;;;;;32.09;16.49;100436.09;5109931;28;20218;-58
2022/03/27 06:54:42;;;;;;;13.05;7.95;;;;;;;32.58;15.97;100430.97;5109628;28;20222;-56
2022/03/27 06:57:09;;;;;;;13.50;7.82;;;;;;;32.37;16.67;100427.88;5109233;28;20223;-57
2022/03/27 07:05:04;;;;;;;11.13;8.65;;;;;;;32.33;16.42;100432.72;5114155;28;20247;-57
2022/03/27 07:07:31;;;;;;;11.75;8.15;;;;;;;32.30;16.58;100430.34;5114034;28;20202;-57
2022/03/27 07:09:58;;;;;;;9.20;8.30;;;;;;;32.03;17.10;100417.97;5113708;28;20638;-57
2022/03/27 07:12:25;;;;;;;9.95;8.10;;;;;;;31.42;17.53;100423.41;5113976;28;20281;-57
2022/03/27 07:14:52;;;;;;;10.60;8.18;;;;;;;31.44;17.64;100424.09;5113852;28;20206;-56
2022/03/27 07:17:19;;;;;;;11.93;8.05;;;;;;;31.98;17.00;100427.47;5113797;28;20712;-57
2022/03/27 07:19:47;;;;;;;8.18;7.38;;;;;;;32.44;16.69;100432.44;5113858;28;20201;-55
2022/03/27 07:22:16;;;;;;;7.80;7.10;;;;;;;33.22;16.02;100436.63;5113994;28;20688;-57
2022/03/27 07:24:43;;;;;;;8.23;7.43;;;;;;;33.73;15.59;100436.31;5113867;28;20234;-57
2022/03/27 07:27:10;;;;;;;7.13;6.50;;;;;;;34.78;15.21;100429.72;5131822;27;20289;-56
2022/03/27 07:29:37;;;;;;;8.35;7.25;;;;;;;35.42;14.60;100434.84;5134101;27;20218;-53
2022/03/27 07:32:06;;;;;;;9.85;7.20;;;;;;;35.79;14.31;100426.72;5134032;27;20649;-53
2022/03/27 07:34:33;;;;;;;8.30;6.95;;;;;;;36.29;14.04;100436.81;5098910;27;20223;-54
2022/03/27 07:37:00;;;;;;;9.93;6.68;;;;;;;35.94;14.04;100427.56;5113072;28;20222;-53
2022/03/27 07:39:28;;;;;;;7.22;6.63;;;;;;;34.91;14.45;100424.56;5113089;28;20222;-53
2022/03/27 07:41:58;;;;;;;14.48;6.65;;;;;;;35.55;14.06;100419.69;5113197;28;20195;-53
2022/03/27 07:44:25;;;;;;;8.10;7.35;;;;;;;35.70;14.10;100430.50;5115808;27;20198;-52
2022/03/27 07:46:56;;;;;;;7.47;6.88;;;;;;;35.24;14.07;100419.75;5114744;27;20195;-52
2022/03/27 07:49:24;;;;;;;10.15;7.25;;;;;;;35.61;14.05;100413.56;5113612;28;20218;-53
2022/03/27 07:51:50;;;;;;;10.82;7.20;;;;;;;35.27;14.30;100419.44;5113557;28;20702;-54
2022/03/27 07:54:17;;;;;;;10.90;8.02;;;;;;;35.99;13.97;100430.56;5113523;28;20195;-54
2022/03/27 07:56:46;;;;;;;10.13;7.90;;;;;;;37.12;13.06;100411.13;5113329;28;20629;-53
2022/03/27 07:59:12;;;;;;;7.40;6.75;;;;;;;37.46;12.94;100423.94;5113316;28;20708;-54
2022/03/27 08:01:39;;;;;;;14.05;8.18;;;;;;;38.05;12.68;100410.78;5113272;28;20205;-53
2022/03/27 08:04:06;;;;;;;10.45;7.05;;;;;;;38.54;12.37;100422.53;5113548;28;20653;-53
2022/03/27 08:06:36;;;;;;;11.82;7.32;;;;;;;38.65;12.38;100414.63;5113049;28;20235;-53
2022/03/27 08:09:04;;;;;;;13.27;7.68;;;;;;;37.93;12.44;100406.97;5113016;28;20194;-53
2022/03/27 08:11:31;;;;;;;8.88;6.43;;;;;;;37.04;12.18;100409.38;5112987;28;20190;-53
2022/03/27 08:13:59;;;;;;;11.90;7.32;;;;;;;36.87;12.74;100385.47;5112814;28;20230;-53
2022/03/27 08:16:27;;;;;;;13.75;8.13;;;;;;;36.67;12.68;100404.19;5113129;28;20611;-52
2022/03/27 08:18:54;;;;;;;18.75;8.18;;;;;;;35.29;13.43;100403.06;5112733;28;20206;-53
2022/03/27 08:21:21;;;;;;;11.48;7.50;;;;;;;34.14;13.81;100399.34;5113216;28;20607;-53
2022/03/27 08:23:48;;;;;;;10.07;7.35;;;;;;;31.82;15.25;100392.50;5112849;28;20639;-53
2022/03/27 08:29:03;;;;;;;11.23;8.07;;;;;;;27.65;18.52;100381.38;5086520;28;20194;-53
2022/03/27 08:31:30;;;;;;;13.63;7.63;;;;;;;26.77;19.16;100374.47;5112903;28;20581;-52
2022/03/27 08:33:58;;;;;;;11.60;9.60;;;;;;;25.91;19.96;100357.56;5112481;28;20198;-53
2022/03/27 08:36:26;;;;;;;9.23;8.25;;;;;;;25.56;20.13;100369.09;5112350;28;20199;-54
2022/03/27 08:38:53;;;;;;;15.50;9.23;;;;;;;24.74;20.96;100361.22;5112172;28;20213;-52
2022/03/27 08:41:22;;;;;;;14.23;8.98;;;;;;;24.33;21.18;100367.75;5112603;28;20309;-54
2022/03/27 08:43:58;;;;;;;10.32;8.23;;;;;;;23.93;21.04;100363.59;5112529;28;20198;-53
2022/03/27 08:46:27;;;;;;;9.65;8.02;;;;;;;23.86;21.23;100353.38;5114706;27;20189;-53
2022/03/27 08:48:59;;;;;;;14.85;8.82;;;;;;;23.93;21.31;100356.44;5122040;27;20195;-53
2022/03/27 08:51:33;;;;;;;11.23;8.20;;;;;;;23.82;21.27;100337.78;5120823;27;20193;-53
2022/03/27 08:54:05;;;;;;;10.60;8.02;;;;;;;23.74;21.33;100345.44;5112505;27;20658;-52
2022/03/27 08:56:33;;;;;;;12.57;9.15;;;;;;;23.86;21.38;100340.13;5112196;28;20194;-53
2022/03/27 08:59:05;;;;;;;12.38;8.30;;;;;;;23.80;21.12;100332.63;5112122;28;20202;-52
2022/03/27 09:01:34;;;;;;;17.88;8.90;;;;;;;23.30;21.59;100346.69;5111954;28;20224;-52
2022/03/27 09:04:02;;;;;;;15.70;10.20;;;;;;;23.00;22.15;100348.78;5112234;28;20201;-53
2022/03/27 09:06:29;;;;;;;13.75;9.63;;;;;;;22.90;22.45;100324.72;5112315;28;20697;-53
2022/03/27 09:08:56;;;;;;;11.27;8.80;;;;;;;22.58;22.80;100325.94;5120205;27;20198;-53
2022/03/27 09:11:24;;;;;;;12.55;8.65;;;;;;;22.52;23.03;100305.19;5132492;27;20186;-52
2022/03/27 09:13:53;;;;;;;10.30;7.55;;;;;;;22.36;22.28;100322.03;5132518;27;20202;-53
2022/03/27 09:16:20;;;;;;;10.85;7.68;;;;;;;22.18;22.34;100317.94;5132302;27;20233;-53
2022/03/27 09:18:52;;;;;;;14.20;7.60;;;;;;;22.04;22.13;100295.03;5132372;27;20577;-53
2022/03/27 09:21:20;;;;;;;15.23;9.32;;;;;;;22.05;22.21;100319.69;5132229;27;20217;-53
2022/03/27 09:23:53;;;;;;;8.93;8.02;;;;;;;22.34;21.69;100328.41;5131465;27;20277;-53
2022/03/27 09:26:21;;;;;;;16.17;9.82;;;;;;;22.44;21.31;100313.63;5132389;27;20205;-52
2022/03/27 09:28:52;;;;;;;10.00;8.30;;;;;;;22.68;21.33;100319.13;5131998;27;20665;-57
2022/03/27 09:31:28;;;;;;;12.75;7.95;;;;;;;22.74;21.08;100316.91;5132139;27;20598;-56
2022/03/27 09:33:59;;;;;;;13.00;8.48;;;;;;;22.79;20.62;100316.66;5132490;27;20680;-56
2022/03/27 09:36:28;;;;;;;21.33;9.10;;;;;;;22.54;20.19;100320.03;5132328;27;20275;-57
2022/03/27 09:39:02;;;;;;;11.15;8.40;;;;;;;22.44;19.81;100322.41;5132026;27;20201;-57
2022/03/27 09:41:40;;;;;;;14.50;9.55;;;;;;;22.29;19.67;100312.81;5131702;27;20750;-57
2022/03/27 09:44:09;;;;;;;12.98;8.60;;;;;;;22.33;19.74;100324.91;5131930;27;20194;-52
2022/03/27 09:46:54;;;;;;;11.65;8.32;;;;;;;22.18;19.96;100306.53;5131332;27;20205;-53
2022/03/27 09:49:26;;;;;;;10.48;8.35;;;;;;;22.23;20.35;100307.94;5131638;27;20654;-54
2022/03/27 09:52:01;;;;;;;12.00;9.98;;;;;;;22.22;20.05;100300.94;5131524;27;20182;-53
2022/03/27 09:54:30;;;;;;;10.32;8.63;;;;;;;22.44;20.64;100313.63;5131643;27;20277;-52
2022/03/27 09:56:57;;;;;;;9.15;7.97;;;;;;;22.45;19.58;100295.03;5131616;27;20189;-53
2022/03/27 09:59:32;;;;;;;12.68;8.73;;;;;;;22.45;19.47;100300.31;5131796;27;20581;-53
2022/03/27 10:02:18;;;;;;;12.40;8.65;;;;;;;22.36;20.13;100298.25;5131230;27;20709;-53
2022/03/27 10:05:06;;;;;;;9.90;8.25;;;;;;;22.24;20.12;100293.75;5131535;27;20204;-52
2022/03/27 10:07:40;;;;;;;10.15;9.13;;;;;;;22.33;20.14;100279.94;5131301;27;20198;-53
2022/03/27 10:10:09;;;;;;;10.70;8.27;;;;;;;22.34;19.66;100288.72;5131376;27;20225;-53
2022/03/27 10:12:37;;;;;;;11.48;8.68;;;;;;;22.30;19.77;100288.06;5131269;27;20771;-53
2022/03/27 10:15:08;;;;;;;13.07;8.63;;;;;;;22.35;20.18;100266.59;5131244;27;20642;-53
2022/03/27 10:17:37;;;;;;;10.43;7.82;;;;;;;22.48;19.96;100277.22;5131319;27;20201;-53
2022/03/27 10:20:09;;;;;;;34.17;9.85;;;;;;;22.44;20.27;100273.94;5131326;27;20564;-53
2022/03/27 10:22:39;;;;;;;15.27;8.98;;;;;;;22.53;20.37;100267.19;5130664;27;20197;-52
2022/03/27 10:25:08;;;;;;;12.48;8.43;;;;;;;22.56;19.75;100274.94;5130914;27;20274;-52
2022/03/27 10:27:36;;;;;;;14.60;8.68;;;;;;;22.56;19.78;100274.94;5131160;27;20194;-52
2022/03/27 10:30:05;;;;;;;10.48;8.77;;;;;;;22.66;20.29;100268.09;5131190;27;20581;-52
2022/03/27 10:32:32;;;;;;;15.68;8.95;;;;;;;22.66;19.52;100270.72;5131227;27;20212;-53
2022/03/27 10:35:15;;;;;;;12.60;8.20;;;;;;;22.54;19.27;100261.81;5130882;27;20204;-55
2022/03/27 10:37:49;;;;;;;9.23;8.02;;;;;;;22.62;19.64;100263.94;5130844;27;20220;-53
2022/03/27 10:40:22;;;;;;;10.25;7.95;;;;;;;22.83;19.63;100266.97;5130993;27;20247;-53
2022/03/27 10:42:58;;;;;;;12.73;8.10;;;;;;;22.78;19.45;100262.00;5092701;28;20230;-52
2022/03/27 10:45:25;;;;;;;18.92;8.57;;;;;;;22.64;19.29;100262.88;5089680;28;20218;-52
2022/03/27 10:48:13;;;;;;;8.95;7.72;;;;;;;22.68;19.69;100263.53;5089824;28;20225;-52
2022/03/27 10:50:53;;;;;;;10.95;8.65;;;;;;;22.76;19.82;100256.81;5088963;28;20222;-52
2022/03/27 10:53:22;;;;;;;15.10;9.00;;;;;;;22.72;19.53;100246.50;5089796;28;20229;-52
2022/03/27 10:55:51;;;;;;;16.73;9.60;;;;;;;22.78;19.26;100240.81;5089624;28;20625;-53
2022/03/27 10:58:44;;;;;;;12.70;8.52;;;;;;;22.79;19.08;100248.66;5089520;28;20629;-52
2022/03/27 11:01:38;;;;;;;10.00;7.75;;;;;;;22.79;19.16;100239.88;5030837;28;20234;-53
2022/03/27 11:04:07;;;;;;;12.80;8.63;;;;;;;22.95;18.94;100240.50;5089203;28;20310;-53
2022/03/27 11:06:38;;;;;;;15.68;8.25;;;;;;;22.97;19.20;100217.44;5089107;28;20300;-52
2022/03/27 11:09:07;;;;;;;14.18;7.95;;;;;;;22.81;19.35;100216.78;5104264;28;20612;-53
2022/03/27 11:12:05;;;;;;;13.13;8.40;;;;;;;22.76;19.38;100226.84;5109884;28;20305;-52
2022/03/27 11:14:59;;;;;;;15.02;8.65;;;;;;;22.83;18.82;100236.06;5109924;28;20229;-52
2022/03/27 11:17:40;;;;;;;18.88;9.30;;;;;;;22.86;18.47;100219.13;5109941;28;20243;-53
2022/03/27 11:20:09;;;;;;;17.05;8.82;;;;;;;22.63;18.87;100215.34;5109259;28;20222;-52
2022/03/27 11:22:47;;;;;;;17.50;8.80;;;;;;;22.54;19.50;100218.63;5109685;28;20249;-53
2022/03/27 11:25:30;;;;;;;9.68;8.38;;;;;;;22.48;18.94;100203.16;5109504;28;20222;-51
2022/03/27 11:28:05;;;;;;;9.27;7.85;;;;;;;22.36;19.36;100204.81;5109597;28;20310;-52
2022/03/27 11:30:34;;;;;;;15.30;9.18;;;;;;;22.35;19.32;100209.25;5109520;28;20258;-52
2022/03/27 11:33:19;;;;;;;16.75;9.77;;;;;;;22.30;18.88;100214.00;5110035;28;20606;-52
2022/03/27 11:36:23;;;;;;;13.57;8.70;;;;;;;22.34;19.02;100202.28;5108570;28;20214;-54
2022/03/27 11:39:08;;;;;;;14.07;9.20;;;;;;;22.37;19.29;100196.78;5109716;28;20732;-53